Time;durP1;ratioP1;P1;durP2;ratioP2;P2;SDS_P1;SDS_P2;PMS_P1;PMS_P2;Temp;Humidity;BMP_temperature;BMP_pressure;BME280_temperature;BME280_humidity;BME280_pressure;Samples;Min_cycle;Max_cycle;Signal;HPM_P1;HPM_P2
2019/11/03 00:00:54;;;;;;;6.1;3.9;;;;;;;11.76;99.34375;940.1217;;;;
2019/11/03 00:03:19;;;;;;;5.5;3.9;;;;;;;11.75;98.28125;940.075;;;;
2019/11/03 00:05:44;;;;;;;5.3;3.6;;;;;;;11.86;97.49805;940.053;;;;
2019/11/03 00:08:09;;;;;;;5.2;4.6;;;;;;;11.67;98.06543;940.0432;;;;
2019/11/03 00:10:34;;;;;;;4.3;3.1;;;;;;;11.7;98.06152;939.9961;;;;
2019/11/03 00:12:59;;;;;;;4.4;3.2;;;;;;;11.61;99.41016;939.975;;;;
2019/11/03 00:16:41;;;;;;;3.9;2.9;;;;;;;11.6;99.16797;939.8981;;;;
2019/11/03 00:19:06;;;;;;;3.4;3.1;;;;;;;11.62;98.70117;939.8105;;;;
2019/11/03 00:21:31;;;;;;;3.9;3.2;;;;;;;11.57;98.41211;939.7869;;;;
2019/11/03 00:23:56;;;;;;;4.4;3.5;;;;;;;11.57;98.83691;939.8645;;;;
2019/11/03 00:26:21;;;;;;;3.4;2.9;;;;;;;11.6;98.45313;939.7977;;;;
2019/11/03 00:28:46;;;;;;;4.9;3.2;;;;;;;11.52;99.19629;939.85;;;;
2019/11/03 00:31:11;;;;;;;4.9;3.5;;;;;;;11.53;98.04688;939.8357;;;;
2019/11/03 00:33:36;;;;;;;5.5;3.9;;;;;;;11.5;98.00391;939.7319;;;;
2019/11/03 00:36:01;;;;;;;3.8;3.2;;;;;;;11.57;98.46973;939.7647;;;;
2019/11/03 00:38:27;;;;;;;4;3.1;;;;;;;11.63;98.17285;939.7238;;;;
2019/11/03 00:40:52;;;;;;;3.2;2.9;;;;;;;11.69;97.96582;939.6584;;;;
2019/11/03 00:43:17;;;;;;;4;3.3;;;;;;;11.69;97.76953;939.6992;;;;
2019/11/03 00:45:42;;;;;;;4;3.2;;;;;;;11.71;98.26953;939.721;;;;
2019/11/03 00:48:07;;;;;;;3.7;3.3;;;;;;;11.69;98.25391;939.6959;;;;
2019/11/03 00:50:32;;;;;;;5.3;3.4;;;;;;;11.56;98.1543;939.6127;;;;
2019/11/03 00:52:57;;;;;;;4.8;3.5;;;;;;;11.56;98.24609;939.536;;;;
2019/11/03 00:55:22;;;;;;;4.8;3.5;;;;;;;11.62;98.08984;939.4704;;;;
2019/11/03 00:57:47;;;;;;;4.6;3.4;;;;;;;11.58;98.16016;939.5822;;;;
2019/11/03 01:00:12;;;;;;;6;3.8;;;;;;;11.57;97.46387;939.6769;;;;
2019/11/03 01:02:37;;;;;;;4.9;4.1;;;;;;;11.61;98.05273;939.6656;;;;
2019/11/03 01:05:02;;;;;;;6.6;4.3;;;;;;;11.51;97.625;939.6981;;;;
2019/11/03 01:07:27;;;;;;;3.8;3.4;;;;;;;11.62;96.93359;939.6459;;;;
2019/11/03 01:09:53;;;;;;;4.6;3.5;;;;;;;11.66;97.35742;939.6378;;;;
2019/11/03 01:12:18;;;;;;;4.4;3.7;;;;;;;11.79;96.66016;939.6127;;;;
2019/11/03 01:14:43;;;;;;;5.3;3.7;;;;;;;11.66;96.79395;939.6638;;;;
2019/11/03 01:17:08;;;;;;;5.7;3.7;;;;;;;11.79;96.72949;939.6618;;;;
2019/11/03 01:19:33;;;;;;;5;3.7;;;;;;;11.84;96.5459;939.738;;;;
2019/11/03 01:21:58;;;;;;;4.1;3.7;;;;;;;11.94;97.39844;939.6976;;;;
2019/11/03 01:24:23;;;;;;;4.9;3.6;;;;;;;11.84;97.76855;939.5332;;;;
2019/11/03 01:26:49;;;;;;;4.6;3.5;;;;;;;11.87;97.86719;939.4114;;;;
2019/11/03 01:29:14;;;;;;;5.1;4;;;;;;;11.8;99.54785;939.4028;;;;
2019/11/03 01:31:39;;;;;;;4.3;3.6;;;;;;;11.83;100;939.4225;;;;
2019/11/03 01:34:04;;;;;;;4.9;3.7;;;;;;;11.67;100;939.3912;;;;
2019/11/03 01:36:30;;;;;;;4;3.2;;;;;;;11.87;97.36133;939.3965;;;;
2019/11/03 01:38:55;;;;;;;3.2;2.1;;;;;;;12.04;96.2793;939.3486;;;;
2019/11/03 01:41:20;;;;;;;2.3;2.1;;;;;;;12.06;95.44043;939.332;;;;
2019/11/03 01:43:45;;;;;;;3.2;2.1;;;;;;;12.1;94.52441;939.3621;;;;
2019/11/03 01:46:11;;;;;;;4.2;2.1;;;;;;;12.06;95.24219;939.3909;;;;
2019/11/03 01:48:36;;;;;;;2;1.6;;;;;;;12.2;94.26855;939.454;;;;
2019/11/03 01:51:01;;;;;;;2.1;1.6;;;;;;;12.17;93.64844;939.4155;;;;
2019/11/03 01:53:26;;;;;;;1.4;1.1;;;;;;;12.3;94.16504;939.3516;;;;
2019/11/03 01:55:52;;;;;;;1.2;1;;;;;;;12.21;94.81543;939.3354;;;;
2019/11/03 01:58:17;;;;;;;2.3;1.1;;;;;;;12.25;94.53418;939.342;;;;
2019/11/03 02:00:42;;;;;;;1.9;1;;;;;;;12.26;94.36328;939.322;;;;
2019/11/03 02:03:07;;;;;;;1.4;0.9;;;;;;;12.2;94.47656;939.3552;;;;
2019/11/03 02:05:32;;;;;;;2.1;0.9;;;;;;;12.2;94.99609;939.3421;;;;
2019/11/03 02:07:58;;;;;;;1.6;0.9;;;;;;;12.21;95.46191;939.2897;;;;
2019/11/03 02:10:23;;;;;;;1.8;1;;;;;;;12.22;95.86719;939.2177;;;;
2019/11/03 02:12:48;;;;;;;2.5;1.1;;;;;;;12.16;96.75391;939.2068;;;;
2019/11/03 02:15:13;;;;;;;1.8;1.2;;;;;;;12.16;96.95215;939.1714;;;;
2019/11/03 02:17:38;;;;;;;2.6;1.5;;;;;;;12.13;96.49414;939.0856;;;;
2019/11/03 02:20:04;;;;;;;2.3;1.3;;;;;;;12.27;97.21875;939.0967;;;;
2019/11/03 02:22:29;;;;;;;2.9;1.4;;;;;;;12.12;96.8291;939.072;;;;
2019/11/03 02:24:54;;;;;;;2.1;1.4;;;;;;;12.08;98.00586;939.0524;;;;
2019/11/03 02:27:19;;;;;;;2;1.1;;;;;;;12.07;97.32324;939.0363;;;;
2019/11/03 02:29:44;;;;;;;2.7;1.3;;;;;;;12.19;97.31836;938.9242;;;;
2019/11/03 02:32:09;;;;;;;2.9;1.2;;;;;;;12.08;97.25781;938.9553;;;;
2019/11/03 02:34:34;;;;;;;2.4;1.3;;;;;;;12.08;97.34766;938.9871;;;;
2019/11/03 02:37:00;;;;;;;2.3;1.4;;;;;;;12.06;96.70898;938.9084;;;;
2019/11/03 02:39:25;;;;;;;1.5;1.1;;;;;;;12.13;97.09473;938.8767;;;;
2019/11/03 02:42:15;;;;;;;2.1;1.2;;;;;;;12.12;97.99512;938.756;;;;
2019/11/03 02:44:15;;;;;;;2.4;1.4;;;;;;;12.04;99.16699;938.6744;;;;
2019/11/03 02:46:41;;;;;;;1.6;1.1;;;;;;;12.02;100;938.6495;;;;
2019/11/03 02:49:06;;;;;;;1.3;1.2;;;;;;;12.06;99.94238;938.6758;;;;
2019/11/03 02:51:31;;;;;;;2.5;1.2;;;;;;;12.01;99.78223;938.6529;;;;
2019/11/03 02:53:56;;;;;;;2.5;1.1;;;;;;;12.01;100;938.6024;;;;
2019/11/03 02:56:21;;;;;;;1.2;1.1;;;;;;;11.96;99.09082;938.5714;;;;
2019/11/03 02:58:47;;;;;;;2.4;1;;;;;;;12.04;100;938.5374;;;;
2019/11/03 03:01:12;;;;;;;1.5;1;;;;;;;12.03;99.43945;938.5303;;;;
2019/11/03 03:03:37;;;;;;;1.9;1.1;;;;;;;11.96;100;938.5436;;;;
2019/11/03 03:06:02;;;;;;;1.5;1;;;;;;;12.04;99.18945;938.5314;;;;
2019/11/03 03:08:27;;;;;;;2.6;1.2;;;;;;;12.11;98.85742;938.4637;;;;
2019/11/03 03:10:53;;;;;;;2.4;1.2;;;;;;;12.08;97.92578;938.4522;;;;
2019/11/03 03:13:18;;;;;;;1.6;1;;;;;;;12.1;97.95508;938.5148;;;;
2019/11/03 03:15:43;;;;;;;2.4;1.6;;;;;;;12.04;97.25;938.5167;;;;
2019/11/03 03:18:08;;;;;;;2.2;1.4;;;;;;;12.03;98.16699;938.4789;;;;
2019/11/03 03:20:33;;;;;;;2.4;1.2;;;;;;;12.03;99.54199;938.4871;;;;
2019/11/03 03:22:59;;;;;;;1.8;1.1;;;;;;;12.12;99.11621;938.4875;;;;
2019/11/03 03:25:24;;;;;;;1.8;1;;;;;;;12.02;99.55273;938.4594;;;;
2019/11/03 03:27:49;;;;;;;1.8;1;;;;;;;12.01;100;938.481;;;;
2019/11/03 03:30:15;;;;;;;1.8;1.2;;;;;;;11.98;100;938.5084;;;;
2019/11/03 03:32:40;;;;;;;1.4;1.1;;;;;;;11.98;100;938.4543;;;;
2019/11/03 03:35:05;;;;;;;2;1.2;;;;;;;11.94;100;938.5036;;;;
2019/11/03 03:37:30;;;;;;;2.3;1.5;;;;;;;11.84;100;938.4437;;;;
2019/11/03 03:39:55;;;;;;;2.6;1.3;;;;;;;11.83;100;938.409;;;;
2019/11/03 03:42:20;;;;;;;2.2;1.3;;;;;;;11.82;100;938.3603;;;;
2019/11/03 03:44:46;;;;;;;1.8;1.4;;;;;;;11.81;100;938.3205;;;;
2019/11/03 03:47:10;;;;;;;2.4;1.3;;;;;;;11.74;100;938.3139;;;;
2019/11/03 03:49:36;;;;;;;2;1.5;;;;;;;11.83;100;938.2728;;;;
2019/11/03 03:52:01;;;;;;;1.9;1.3;;;;;;;11.84;100;938.2594;;;;
2019/11/03 03:54:26;;;;;;;2.3;1.4;;;;;;;11.82;99.87695;938.2043;;;;
2019/11/03 03:56:51;;;;;;;2.3;1.3;;;;;;;11.88;100;938.25;;;;
2019/11/03 03:59:16;;;;;;;2;1.3;;;;;;;11.82;100;938.2151;;;;
2019/11/03 04:02:28;;;;;;;1.6;1.3;;;;;;;11.86;100;938.2333;;;;
2019/11/03 04:04:53;;;;;;;1.8;1.2;;;;;;;11.86;100;938.225;;;;
2019/11/03 04:07:18;;;;;;;2.3;1.5;;;;;;;11.82;100;938.212;;;;
2019/11/03 04:09:43;;;;;;;2.4;1.8;;;;;;;11.83;100;938.2019;;;;
2019/11/03 04:12:09;;;;;;;3.5;2.1;;;;;;;11.67;100;938.1929;;;;
2019/11/03 04:14:34;;;;;;;2.4;2.1;;;;;;;11.57;100;938.0787;;;;
2019/11/03 04:16:59;;;;;;;2.8;2.4;;;;;;;11.43;100;938.0068;;;;
2019/11/03 04:19:24;;;;;;;2.5;2.2;;;;;;;11.42;100;937.962;;;;
2019/11/03 04:21:49;;;;;;;3.5;2.4;;;;;;;11.31;100;937.9161;;;;
2019/11/03 04:24:14;;;;;;;3.7;2.3;;;;;;;11.34;100;937.8656;;;;
2019/11/03 04:26:39;;;;;;;2.6;2.4;;;;;;;11.31;100;937.8075;;;;
2019/11/03 04:29:04;;;;;;;2.9;2.5;;;;;;;11.37;100;937.747;;;;
2019/11/03 04:31:29;;;;;;;3;2.3;;;;;;;11.41;100;937.628;;;;
2019/11/03 04:33:54;;;;;;;3.4;2.2;;;;;;;11.45;100;937.5584;;;;
2019/11/03 04:36:19;;;;;;;2.7;2.3;;;;;;;11.5;100;937.5656;;;;
2019/11/03 04:38:47;;;;;;;3;2.2;;;;;;;11.5;100;937.4777;;;;
2019/11/03 04:41:12;;;;;;;2.6;2.2;;;;;;;11.57;100;937.4355;;;;
2019/11/03 04:43:37;;;;;;;3;2.4;;;;;;;11.51;100;937.3647;;;;
2019/11/03 04:46:04;;;;;;;3.1;2.5;;;;;;;11.39;100;937.3502;;;;
2019/11/03 04:50:54;;;;;;;3.4;2.4;;;;;;;11.39;100;937.2676;;;;
2019/11/03 04:53:17;;;;;;;3.1;2.5;;;;;;;11.51;100;937.2562;;;;
2019/11/03 04:56:15;;;;;;;3.5;2.4;;;;;;;11.48;100;937.2448;;;;
2019/11/03 04:58:40;;;;;;;2.6;2.4;;;;;;;11.46;100;937.1906;;;;
2019/11/03 05:01:07;;;;;;;2.4;2.2;;;;;;;11.39;100;937.1772;;;;
2019/11/03 05:03:31;;;;;;;2.7;2.2;;;;;;;11.39;100;937.1298;;;;
2019/11/03 05:05:56;;;;;;;3;2.3;;;;;;;11.45;100;937.1483;;;;
2019/11/03 05:08:21;;;;;;;2.7;2.2;;;;;;;11.53;100;937.0748;;;;
2019/11/03 05:10:46;;;;;;;2.7;2.2;;;;;;;11.47;100;937.06;;;;
2019/11/03 05:13:11;;;;;;;2.4;2.1;;;;;;;11.52;100;936.9985;;;;
2019/11/03 05:15:36;;;;;;;3.3;2.3;;;;;;;11.49;100;936.9814;;;;
2019/11/03 05:18:01;;;;;;;3.2;2.2;;;;;;;11.54;100;936.9303;;;;
2019/11/03 05:20:26;;;;;;;3.3;2.1;;;;;;;11.59;100;936.9343;;;;
2019/11/03 05:22:51;;;;;;;3.4;2.1;;;;;;;11.58;100;936.9044;;;;
2019/11/03 05:25:16;;;;;;;3.3;2.1;;;;;;;11.59;100;936.9283;;;;
2019/11/03 05:27:42;;;;;;;2.8;2.3;;;;;;;11.59;100;936.913;;;;
2019/11/03 05:30:07;;;;;;;2.8;2.2;;;;;;;11.48;100;936.9194;;;;
2019/11/03 05:32:32;;;;;;;2.7;2.2;;;;;;;11.46;100;936.8589;;;;
2019/11/03 05:34:57;;;;;;;3.4;2.2;;;;;;;11.51;100;936.8354;;;;
2019/11/03 05:37:22;;;;;;;2.2;1.9;;;;;;;11.5;100;936.7983;;;;
2019/11/03 05:39:47;;;;;;;2.2;2;;;;;;;11.58;100;936.8005;;;;
2019/11/03 05:42:12;;;;;;;3.3;2.1;;;;;;;11.47;100;936.8308;;;;
2019/11/03 05:44:37;;;;;;;2.3;1.8;;;;;;;11.59;100;936.8201;;;;
2019/11/03 05:47:02;;;;;;;1.8;1.7;;;;;;;11.7;99.81348;936.7736;;;;
2019/11/03 05:49:27;;;;;;;3.7;1.9;;;;;;;11.55;100;936.692;;;;
2019/11/03 05:51:52;;;;;;;2.9;1.9;;;;;;;11.58;100;936.6791;;;;
2019/11/03 05:54:17;;;;;;;2.3;2;;;;;;;11.54;100;936.6636;;;;
2019/11/03 05:56:43;;;;;;;3;2.1;;;;;;;11.53;100;936.6901;;;;
2019/11/03 05:59:08;;;;;;;2;1.8;;;;;;;11.5;100;936.6603;;;;
2019/11/03 06:01:35;;;;;;;2.5;1.7;;;;;;;11.69;99.00391;936.67;;;;
2019/11/03 06:06:41;;;;;;;3.7;1.9;;;;;;;11.33;100;936.6462;;;;
2019/11/03 06:08:48;;;;;;;1.8;1.7;;;;;;;11.29;100;936.6063;;;;
2019/11/03 06:11:13;;;;;;;1.8;1.7;;;;;;;11.34;100;936.5815;;;;
2019/11/03 06:13:38;;;;;;;2.6;1.7;;;;;;;11.3;100;936.5284;;;;
2019/11/03 06:16:03;;;;;;;2.2;1.6;;;;;;;11.36;100;936.4727;;;;
2019/11/03 06:18:28;;;;;;;2.5;1.6;;;;;;;11.34;100;936.4551;;;;
2019/11/03 06:20:58;;;;;;;1.8;1.6;;;;;;;11.34;100;936.4497;;;;
2019/11/03 06:23:24;;;;;;;2.8;1.7;;;;;;;11.41;100;936.4701;;;;
2019/11/03 06:25:49;;;;;;;3.4;2.1;;;;;;;11.34;100;936.5181;;;;
2019/11/03 06:28:14;;;;;;;4.3;2.3;;;;;;;11.31;100;936.4634;;;;
2019/11/03 06:30:40;;;;;;;3.1;2.1;;;;;;;11.32;100;936.4687;;;;
2019/11/03 06:33:05;;;;;;;2;1.6;;;;;;;11.3;100;936.4952;;;;
2019/11/03 06:35:30;;;;;;;3;1.8;;;;;;;11.31;100;936.4918;;;;
2019/11/03 06:37:55;;;;;;;1.7;1.4;;;;;;;11.38;100;936.5105;;;;
2019/11/03 06:40:20;;;;;;;2.9;1.6;;;;;;;11.31;100;936.5406;;;;
2019/11/03 06:42:45;;;;;;;2.6;1.7;;;;;;;11.23;100;936.4926;;;;
2019/11/03 06:45:10;;;;;;;2;1.5;;;;;;;11.26;100;936.5604;;;;
2019/11/03 06:47:35;;;;;;;2.3;1.6;;;;;;;11.17;100;936.5363;;;;
2019/11/03 06:50:00;;;;;;;2.7;1.6;;;;;;;11.24;100;936.5966;;;;
2019/11/03 06:52:25;;;;;;;3.2;1.6;;;;;;;11.3;100;936.5906;;;;
2019/11/03 06:54:51;;;;;;;2.5;1.5;;;;;;;11.28;100;936.5806;;;;
2019/11/03 06:57:16;;;;;;;1.6;1.2;;;;;;;11.34;100;936.6437;;;;
2019/11/03 06:59:41;;;;;;;2;1.4;;;;;;;11.24;100;936.6783;;;;
2019/11/03 07:02:06;;;;;;;1.8;1.3;;;;;;;11.28;100;936.6309;;;;
2019/11/03 07:04:31;;;;;;;3;1.5;;;;;;;11.2;100;936.6806;;;;
2019/11/03 07:06:56;;;;;;;1.9;1.4;;;;;;;11.11;100;936.6924;;;;
2019/11/03 07:09:22;;;;;;;1.4;1.3;;;;;;;11.26;100;936.6689;;;;
2019/11/03 07:11:47;;;;;;;1.3;1.2;;;;;;;11.24;100;936.6823;;;;
2019/11/03 07:14:12;;;;;;;1.6;1.3;;;;;;;11.17;100;936.6716;;;;
2019/11/03 07:16:37;;;;;;;2.4;1.3;;;;;;;11.12;100;936.7164;;;;
2019/11/03 07:19:02;;;;;;;2.5;1.3;;;;;;;11.02;100;936.7642;;;;
2019/11/03 07:21:28;;;;;;;2.8;1.4;;;;;;;11.07;100;936.68;;;;
2019/11/03 07:23:53;;;;;;;2.3;1.5;;;;;;;11.11;100;936.7249;;;;
2019/11/03 07:26:18;;;;;;;2.9;1.6;;;;;;;11.2;100;936.7459;;;;
2019/11/03 07:28:43;;;;;;;2.3;1.5;;;;;;;11.18;100;936.7251;;;;
2019/11/03 07:31:09;;;;;;;2.2;1.5;;;;;;;11.24;100;936.6783;;;;
2019/11/03 07:33:34;;;;;;;2.5;1.5;;;;;;;11.27;100;936.5863;;;;
2019/11/03 07:35:59;;;;;;;2.7;1.3;;;;;;;11.34;100;936.5676;;;;
2019/11/03 07:38:24;;;;;;;1.9;1.4;;;;;;;11.3;100;936.5726;;;;
